Time;durP1;ratioP1;P1;durP2;ratioP2;P2;SDS_P1;SDS_P2;PMS_P1;PMS_P2;Temp;Humidity;BMP_temperature;BMP_pressure;BME280_temperature;BME280_humidity;BME280_pressure;Samples;Min_cycle;Max_cycle;Signal;HPM_P1;HPM_P2
2023/09/15 00:02:09;;;;;;;5.35;3.78;;;12.40;99.90;;;;;;5124180;27;20047;-79
2023/09/15 00:04:34;;;;;;;5.25;3.58;;;12.40;99.90;;;;;;5118596;27;20547;-79
2023/09/15 00:07:00;;;;;;;7.60;3.83;;;12.30;99.90;;;;;;5123983;27;20053;-79
2023/09/15 00:09:25;;;;;;;9.25;4.15;;;12.30;99.90;;;;;;5130557;27;20046;-79
2023/09/15 00:11:51;;;;;;;6.90;4.35;;;12.20;99.90;;;;;;5142211;27;20042;-79
2023/09/15 00:14:18;;;;;;;7.95;4.28;;;12.20;99.90;;;;;;5135776;27;20347;-79
2023/09/15 00:16:44;;;;;;;4.47;3.92;;;12.20;99.90;;;;;;5130960;27;20887;-79
2023/09/15 00:19:16;;;;;;;6.50;3.75;;;12.20;99.90;;;;;;5134290;27;20176;-79
2023/09/15 00:21:43;;;;;;;4.70;3.90;;;12.20;99.90;;;;;;5138764;27;20072;-79
2023/09/15 00:24:09;;;;;;;8.05;3.85;;;12.10;99.90;;;;;;5130536;27;20083;-79
2023/09/15 00:26:35;;;;;;;6.35;3.88;;;12.10;99.90;;;;;;5116590;27;20039;-80
2023/09/15 00:29:02;;;;;;;5.00;4.13;;;12.00;99.90;;;;;;5117207;27;20046;-79
2023/09/15 00:31:28;;;;;;;7.65;4.43;;;12.00;99.90;;;;;;5132721;27;20581;-80
2023/09/15 00:33:54;;;;;;;5.15;3.78;;;12.00;99.90;;;;;;5141921;27;20895;-80
2023/09/15 00:36:20;;;;;;;5.40;4.20;;;12.00;99.90;;;;;;5140618;27;20039;-79
2023/09/15 00:38:46;;;;;;;12.95;4.43;;;11.90;99.90;;;;;;5142019;27;20368;-80
2023/09/15 00:41:13;;;;;;;7.70;4.25;;;11.90;99.90;;;;;;5121846;27;20047;-80
2023/09/15 00:43:39;;;;;;;5.97;3.88;;;11.90;99.90;;;;;;5139857;27;20042;-79
2023/09/15 00:46:06;;;;;;;4.80;4.00;;;11.80;99.90;;;;;;5090419;27;20059;-79
2023/09/15 00:48:32;;;;;;;4.47;3.78;;;12.90;99.90;;;;;;5104065;27;20073;-80
2023/09/15 00:50:59;;;;;;;8.57;3.75;;;12.50;99.90;;;;;;5121987;27;20051;-80
2023/09/15 00:53:25;;;;;;;5.20;3.60;;;11.60;99.90;;;;;;5137985;27;20050;-79
2023/09/15 00:55:51;;;;;;;5.07;3.15;;;11.70;99.90;;;;;;5143015;27;20050;-80
2023/09/15 00:58:18;;;;;;;6.47;3.72;;;11.60;99.90;;;;;;5123056;27;21231;-80
2023/09/15 01:00:45;;;;;;;4.90;3.55;;;11.60;99.90;;;;;;5122242;27;20051;-80
2023/09/15 01:03:13;;;;;;;7.97;3.75;;;11.60;99.90;;;;;;5102100;27;20127;-79
2023/09/15 01:05:40;;;;;;;6.03;3.83;;;11.60;99.90;;;;;;5122314;27;20039;-80
2023/09/15 01:08:09;;;;;;;5.43;3.50;;;11.60;99.90;;;;;;5134000;27;20046;-79
2023/09/15 01:10:37;;;;;;;6.40;3.80;;;11.60;99.90;;;;;;5120349;27;20058;-80
2023/09/15 01:13:04;;;;;;;5.25;3.72;;;11.60;99.90;;;;;;5122878;27;20047;-79
2023/09/15 01:15:51;;;;;;;5.55;3.60;;;11.60;99.90;;;;;;5122453;27;20050;-79
2023/09/15 01:18:26;;;;;;;8.95;4.72;;;11.50;99.90;;;;;;5133127;27;20082;-79
2023/09/15 01:21:18;;;;;;;5.80;4.07;;;11.50;99.90;;;;;;5113538;27;20059;-80
2023/09/15 01:24:11;;;;;;;5.30;4.32;;;11.50;99.90;;;;;;5132599;27;20916;-79
2023/09/15 01:27:03;;;;;;;3.95;3.55;;;11.50;99.90;;;;;;5136250;27;20050;-78
2023/09/15 01:29:44;;;;;;;6.60;4.50;;;11.50;99.90;;;;;;5126251;27;20078;-79
2023/09/15 01:32:12;;;;;;;5.72;3.53;;;11.50;99.90;;;;;;5144185;27;20137;-79
2023/09/15 01:34:39;;;;;;;4.07;3.60;;;11.50;99.90;;;;;;5143525;27;20055;-79
2023/09/15 01:37:05;;;;;;;4.32;3.35;;;11.40;99.90;;;;;;5144394;27;20057;-79
2023/09/15 01:39:30;;;;;;;4.72;3.53;;;11.40;99.90;;;;;;5144161;27;20050;-79
2023/09/15 01:41:58;;;;;;;4.18;3.55;;;11.40;99.90;;;;;;5124558;27;20187;-79
2023/09/15 01:44:24;;;;;;;5.40;4.00;;;11.40;99.90;;;;;;5144709;27;20042;-79
2023/09/15 01:46:49;;;;;;;5.47;4.18;;;11.40;99.90;;;;;;5122581;27;20696;-79
2023/09/15 01:49:18;;;;;;;7.07;4.57;;;11.30;99.90;;;;;;5112233;27;20059;-79
2023/09/15 01:51:45;;;;;;;5.38;3.88;;;11.30;99.90;;;;;;5107250;27;20145;-79
2023/09/15 01:54:11;;;;;;;6.78;3.95;;;11.20;99.90;;;;;;5118087;27;20042;-80
2023/09/15 01:56:37;;;;;;;6.95;4.00;;;11.20;99.90;;;;;;5134738;27;20042;-78
2023/09/15 01:59:03;;;;;;;4.25;3.85;;;11.20;99.90;;;;;;5131379;27;20061;-79
2023/09/15 02:01:29;;;;;;;6.15;3.88;;;11.20;99.90;;;;;;5125348;27;20049;-79
2023/09/15 02:03:55;;;;;;;4.30;3.80;;;11.20;99.90;;;;;;5107379;27;20051;-79
2023/09/15 02:06:20;;;;;;;4.15;3.13;;;11.10;99.90;;;;;;5131925;27;20046;-79
2023/09/15 02:08:46;;;;;;;10.10;3.80;;;11.20;99.90;;;;;;5129357;27;20161;-79
2023/09/15 02:11:12;;;;;;;4.53;3.95;;;11.20;99.90;;;;;;5126546;27;20114;-79
2023/09/15 02:13:39;;;;;;;4.38;3.72;;;11.10;99.90;;;;;;5143538;27;20755;-79
2023/09/15 02:16:05;;;;;;;5.80;4.03;;;11.20;99.90;;;;;;5132065;27;20137;-79
2023/09/15 02:18:31;;;;;;;4.72;3.75;;;11.20;99.90;;;;;;5137385;27;20043;-79
2023/09/15 02:20:57;;;;;;;7.07;4.05;;;11.10;99.90;;;;;;5136948;27;20154;-79
2023/09/15 02:23:24;;;;;;;5.93;3.47;;;11.10;99.90;;;;;;5115554;27;20040;-79
2023/09/15 02:25:50;;;;;;;5.57;3.92;;;11.10;99.90;;;;;;5128326;27;20190;-79
2023/09/15 02:28:16;;;;;;;4.22;3.55;;;11.10;99.90;;;;;;5123401;27;20046;-79
2023/09/15 02:30:42;;;;;;;6.00;3.50;;;11.10;99.90;;;;;;5139889;27;20197;-79
2023/09/15 02:33:08;;;;;;;4.43;3.70;;;11.00;99.90;;;;;;5139357;27;20475;-79
2023/09/15 02:35:34;;;;;;;6.80;4.28;;;11.00;99.90;;;;;;5123002;27;20039;-79
2023/09/15 02:38:00;;;;;;;3.72;3.42;;;11.00;99.90;;;;;;5119756;27;20689;-79
2023/09/15 02:40:25;;;;;;;5.32;3.50;;;11.00;99.90;;;;;;5118268;27;20050;-79
2023/09/15 02:42:51;;;;;;;5.00;3.38;;;10.90;99.90;;;;;;5142097;27;20093;-79
2023/09/15 02:45:17;;;;;;;4.13;3.30;;;10.90;99.90;;;;;;5144269;27;20062;-79
2023/09/15 02:47:43;;;;;;;4.97;3.85;;;10.90;99.90;;;;;;5121856;27;20502;-78
2023/09/15 02:50:09;;;;;;;6.47;3.80;;;10.90;99.90;;;;;;5104477;27;20506;-78
2023/09/15 02:52:34;;;;;;;4.07;3.10;;;10.80;99.90;;;;;;5125707;27;20130;-78
2023/09/15 02:55:01;;;;;;;6.32;3.90;;;10.80;99.90;;;;;;5142437;27;20050;-79
2023/09/15 02:57:28;;;;;;;3.70;3.25;;;10.70;99.90;;;;;;5143868;27;20091;-79
2023/09/15 02:59:53;;;;;;;4.97;3.83;;;10.70;99.90;;;;;;5144251;27;20378;-79
2023/09/15 03:02:22;;;;;;;4.05;3.38;;;10.70;99.90;;;;;;5141255;27;20127;-79
2023/09/15 03:04:48;;;;;;;7.55;4.25;;;10.70;99.90;;;;;;5133539;27;20056;-79
2023/09/15 03:07:15;;;;;;;7.40;4.28;;;10.70;99.90;;;;;;5136565;27;20062;-79
2023/09/15 03:09:42;;;;;;;5.90;3.88;;;10.80;99.90;;;;;;5136550;27;20088;-77
2023/09/15 03:12:07;;;;;;;5.18;3.58;;;10.70;99.90;;;;;;5106285;27;20051;-79
2023/09/15 03:14:33;;;;;;;5.95;3.85;;;10.60;99.90;;;;;;5132378;27;20050;-79
2023/09/15 03:16:59;;;;;;;4.72;4.00;;;10.70;99.90;;;;;;5114888;27;20050;-79
2023/09/15 03:19:25;;;;;;;5.72;4.22;;;10.70;99.90;;;;;;5141556;27;20038;-79
2023/09/15 03:21:51;;;;;;;5.60;4.28;;;10.60;99.90;;;;;;5122063;27;20099;-79
2023/09/15 03:24:18;;;;;;;5.68;3.42;;;10.60;99.90;;;;;;5139548;27;20050;-79
2023/09/15 03:26:45;;;;;;;7.60;4.40;;;10.60;99.90;;;;;;5143495;27;20129;-79
2023/09/15 03:29:10;;;;;;;4.70;3.80;;;10.60;99.90;;;;;;5124992;27;20057;-79
2023/09/15 03:31:38;;;;;;;4.32;3.65;;;10.60;99.90;;;;;;5134247;27;20533;-79
2023/09/15 03:34:03;;;;;;;5.63;3.97;;;10.60;99.90;;;;;;5125162;27;20047;-78
2023/09/15 03:36:29;;;;;;;5.75;4.30;;;10.60;99.90;;;;;;5135225;27;20042;-79
2023/09/15 03:38:56;;;;;;;5.53;4.35;;;10.60;99.90;;;;;;5124640;27;20499;-79
2023/09/15 03:41:24;;;;;;;7.28;4.30;;;10.60;99.90;;;;;;5135785;27;20055;-79
2023/09/15 03:43:50;;;;;;;4.90;4.40;;;10.60;99.90;;;;;;5119818;27;20932;-79
2023/09/15 03:46:16;;;;;;;5.35;4.10;;;10.50;99.90;;;;;;5122606;27;20138;-79
2023/09/15 03:48:42;;;;;;;4.80;3.83;;;10.50;99.90;;;;;;5114915;27;20058;-79
2023/09/15 03:51:08;;;;;;;4.97;4.47;;;10.40;99.90;;;;;;5125374;27;20043;-78
2023/09/15 03:53:33;;;;;;;4.57;4.00;;;10.40;99.90;;;;;;5125091;27;20051;-79
2023/09/15 03:55:59;;;;;;;4.57;4.10;;;10.30;99.90;;;;;;5123942;27;20047;-78
2023/09/15 03:58:25;;;;;;;6.13;4.47;;;10.40;99.90;;;;;;5120762;27;20942;-78
2023/09/15 04:00:51;;;;;;;6.32;4.28;;;10.30;99.90;;;;;;5123298;27;20043;-78
2023/09/15 04:03:16;;;;;;;4.88;4.43;;;10.40;99.90;;;;;;5123431;27;20574;-78
2023/09/15 04:05:42;;;;;;;5.60;4.93;;;10.40;99.90;;;;;;5107833;27;20145;-79
2023/09/15 04:08:08;;;;;;;4.65;4.00;;;10.40;99.90;;;;;;5111949;27;20131;-79
2023/09/15 04:10:35;;;;;;;7.00;4.28;;;10.40;99.90;;;;;;5138490;27;20798;-78
2023/09/15 04:13:00;;;;;;;6.45;4.43;;;10.30;99.90;;;;;;5113204;27;20816;-79
2023/09/15 04:15:26;;;;;;;5.85;3.65;;;10.30;99.90;;;;;;5126029;27;20046;-78
2023/09/15 04:17:52;;;;;;;3.70;3.40;;;10.30;99.90;;;;;;5135295;27;20038;-79
2023/09/15 04:20:18;;;;;;;4.20;3.67;;;10.20;99.90;;;;;;5135794;27;20134;-78
2023/09/15 04:22:43;;;;;;;5.65;4.00;;;10.30;99.90;;;;;;5100225;27;20051;-79
2023/09/15 04:25:11;;;;;;;4.03;3.63;;;10.30;99.90;;;;;;5117264;27;20100;-79
2023/09/15 04:27:37;;;;;;;4.85;4.05;;;10.20;99.90;;;;;;5121167;27;20134;-79
2023/09/15 04:30:03;;;;;;;7.25;4.60;;;10.20;99.90;;;;;;5132670;27;20054;-79
2023/09/15 04:32:29;;;;;;;7.63;5.35;;;10.20;99.90;;;;;;5106789;27;20047;-77
2023/09/15 04:34:55;;;;;;;5.15;4.65;;;10.20;99.90;;;;;;5125866;27;20047;-78
2023/09/15 04:37:22;;;;;;;5.43;4.50;;;10.10;99.90;;;;;;5117000;27;20046;-78
2023/09/15 04:39:51;;;;;;;4.60;3.70;;;10.20;99.90;;;;;;5129514;27;20046;-79
2023/09/15 04:42:17;;;;;;;6.13;3.97;;;10.10;99.90;;;;;;5134184;27;20042;-78
2023/09/15 04:44:43;;;;;;;3.92;3.63;;;10.10;99.90;;;;;;5118432;27;20045;-78
2023/09/15 04:47:11;;;;;;;5.05;3.85;;;10.10;99.90;;;;;;5115826;27;20080;-79
2023/09/15 04:49:37;;;;;;;4.60;4.20;;;10.10;99.90;;;;;;5116238;27;20046;-78
2023/09/15 04:52:03;;;;;;;3.78;3.38;;;10.00;99.90;;;;;;5128403;27;20078;-78
2023/09/15 04:54:28;;;;;;;4.03;3.08;;;10.00;99.90;;;;;;5127732;27;20054;-79
2023/09/15 04:56:54;;;;;;;4.22;3.10;;;10.00;99.90;;;;;;5115614;27;20116;-78
2023/09/15 04:59:20;;;;;;;4.78;3.40;;;10.00;99.90;;;;;;5131693;27;20151;-78
2023/09/15 05:01:46;;;;;;;4.65;3.35;;;10.00;99.90;;;;;;5131519;27;20442;-78
2023/09/15 05:04:15;;;;;;;3.92;3.47;;;8.90;99.90;;;;;;5112852;27;20046;-78
2023/09/15 05:06:41;;;;;;;5.70;3.90;;;10.00;99.90;;;;;;5118976;27;20864;-78
2023/09/15 05:09:10;;;;;;;5.78;4.78;;;10.00;99.90;;;;;;5134916;27;20053;-78
2023/09/15 05:11:37;;;;;;;5.90;4.15;;;9.90;99.90;;;;;;5126736;27;20097;-79
2023/09/15 05:14:03;;;;;;;7.05;5.00;;;9.90;99.90;;;;;;5118406;27;20095;-78
2023/09/15 05:16:29;;;;;;;6.63;5.32;;;9.80;99.90;;;;;;5112361;28;20039;-78
2023/09/15 05:18:55;;;;;;;5.93;5.43;;;9.90;99.90;;;;;;5122932;27;20782;-78
2023/09/15 05:21:21;;;;;;;5.70;5.07;;;10.70;99.90;;;;;;5126389;27;20046;-78
2023/09/15 05:23:46;;;;;;;6.35;4.63;;;9.90;99.90;;;;;;5126312;27;20043;-79
2023/09/15 05:26:12;;;;;;;5.85;5.07;;;10.00;99.90;;;;;;5102842;28;20047;-79
2023/09/15 05:28:38;;;;;;;6.78;5.13;;;10.00;99.90;;;;;;5129878;27;20046;-78
2023/09/15 05:31:04;;;;;;;10.18;5.72;;;10.00;99.90;;;;;;5138027;27;20053;-78
2023/09/15 05:33:29;;;;;;;7.63;5.53;;;10.00;99.90;;;;;;5119374;27;20149;-78
2023/09/15 05:35:56;;;;;;;5.80;5.22;;;9.90;99.90;;;;;;5137203;27;20103;-78
2023/09/15 05:38:23;;;;;;;5.70;5.07;;;9.90;99.90;;;;;;5137179;27;20058;-79
2023/09/15 05:40:49;;;;;;;8.00;5.28;;;9.90;99.90;;;;;;5124812;27;20432;-78
2023/09/15 05:43:18;;;;;;;5.75;4.80;;;9.90;99.90;;;;;;5137146;27;20046;-79
2023/09/15 05:45:45;;;;;;;9.60;4.35;;;9.90;99.90;;;;;;5128076;27;20055;-78
2023/09/15 05:48:16;;;;;;;7.35;5.20;;;10.00;99.90;;;;;;5138786;27;20089;-78
2023/09/15 05:50:42;;;;;;;6.60;5.30;;;10.00;99.90;;;;;;5132810;27;20111;-79
2023/09/15 05:53:07;;;;;;;13.55;6.22;;;10.00;99.90;;;;;;5138223;27;20047;-78
2023/09/15 05:55:33;;;;;;;8.10;6.70;;;10.00;99.90;;;;;;5129720;27;20109;-78
2023/09/15 05:57:59;;;;;;;6.18;5.68;;;10.10;99.90;;;;;;5117877;28;20164;-78
2023/09/15 06:00:25;;;;;;;6.72;5.97;;;10.10;99.90;;;;;;5133793;27;20058;-78
2023/09/15 06:02:51;;;;;;;7.03;6.28;;;10.10;99.90;;;;;;5137737;27;20042;-78
2023/09/15 06:05:19;;;;;;;8.15;6.05;;;10.10;99.90;;;;;;5139550;27;20111;-78
2023/09/15 06:07:49;;;;;;;6.00;5.18;;;10.10;99.90;;;;;;5141094;27;20047;-78
2023/09/15 06:10:15;;;;;;;8.02;5.85;;;10.10;99.90;;;;;;5131914;27;20089;-78
2023/09/15 06:12:40;;;;;;;7.43;6.72;;;10.20;99.90;;;;;;5141218;27;20466;-78
2023/09/15 06:15:06;;;;;;;6.47;5.85;;;10.30;99.90;;;;;;5142623;27;20532;-78
2023/09/15 06:17:34;;;;;;;12.88;6.55;;;10.30;99.90;;;;;;5136401;27;20045;-79
2023/09/15 06:20:00;;;;;;;9.32;6.32;;;10.40;99.90;;;;;;5140394;27;20046;-78
2023/09/15 06:22:26;;;;;;;7.32;6.53;;;10.40;99.90;;;;;;5132976;27;20096;-78
2023/09/15 06:24:52;;;;;;;10.40;6.53;;;10.50;99.90;;;;;;5136068;27;20053;-79
2023/09/15 06:27:18;;;;;;;12.50;7.72;;;10.60;99.90;;;;;;5138466;27;20043;-78
2023/09/15 06:29:44;;;;;;;14.90;6.95;;;10.70;99.90;;;;;;5124782;27;20043;-79
2023/09/15 06:32:10;;;;;;;7.50;6.75;;;10.70;99.90;;;;;;5139466;27;20047;-78
2023/09/15 06:34:36;;;;;;;9.48;7.30;;;10.80;99.90;;;;;;5136767;27;20071;-79
2023/09/15 06:37:01;;;;;;;7.53;6.78;;;10.80;99.90;;;;;;5138410;27;20078;-79
2023/09/15 06:39:28;;;;;;;7.65;6.60;;;10.90;99.90;;;;;;5121904;27;20057;-78
2023/09/15 06:41:54;;;;;;;8.32;6.60;;;11.00;99.90;;;;;;5139010;27;20046;-79
2023/09/15 06:44:20;;;;;;;7.68;6.80;;;11.00;99.90;;;;;;5136729;27;20046;-78
2023/09/15 06:46:46;;;;;;;8.98;6.90;;;11.10;99.90;;;;;;5122321;27;20055;-78
2023/09/15 06:49:12;;;;;;;7.90;6.57;;;11.20;99.90;;;;;;5131986;27;20061;-77
2023/09/15 06:51:38;;;;;;;6.90;5.97;;;11.30;99.90;;;;;;5144297;27;20153;-78
2023/09/15 06:54:04;;;;;;;7.13;6.13;;;11.40;99.90;;;;;;5143813;27;20346;-78
2023/09/15 06:56:30;;;;;;;12.82;7.25;;;11.50;99.90;;;;;;5137645;27;20468;-77
2023/09/15 06:58:55;;;;;;;7.90;7.10;;;11.60;99.90;;;;;;5135754;27;20047;-77
2023/09/15 07:01:21;;;;;;;8.70;7.15;;;11.70;99.90;;;;;;5138189;27;20046;-78
2023/09/15 07:03:47;;;;;;;8.10;7.30;;;11.80;99.90;;;;;;5144330;27;20046;-78
2023/09/15 07:06:13;;;;;;;9.10;7.43;;;12.00;99.90;;;;;;5117513;27;20180;-78
2023/09/15 07:08:40;;;;;;;10.90;8.40;;;12.10;99.90;;;;;;5144221;27;20046;-78
2023/09/15 07:11:05;;;;;;;8.27;7.28;;;12.20;99.90;;;;;;5141178;27;20043;-78
2023/09/15 07:13:31;;;;;;;9.07;7.60;;;12.30;99.90;;;;;;5127831;27;20047;-79
2023/09/15 07:15:57;;;;;;;8.60;6.65;;;12.40;99.90;;;;;;5118592;27;20048;-79
2023/09/15 07:18:23;;;;;;;7.55;6.72;;;12.60;99.90;;;;;;5135894;27;20102;-79
2023/09/15 07:20:49;;;;;;;8.07;7.28;;;12.80;99.90;;;;;;5127067;27;20051;-79
2023/09/15 07:23:15;;;;;;;10.90;8.13;;;13.00;99.90;;;;;;5143368;27;20638;-78
2023/09/15 07:25:45;;;;;;;11.80;7.63;;;13.10;99.90;;;;;;5131554;27;20075;-78
2023/09/15 07:28:11;;;;;;;8.85;7.20;;;13.30;99.90;;;;;;5137192;27;20495;-78
2023/09/15 07:30:37;;;;;;;8.63;7.05;;;13.50;99.90;;;;;;5132035;27;20054;-79
2023/09/15 07:33:03;;;;;;;7.85;5.88;;;14.50;99.90;;;;;;5118214;27;20550;-79
2023/09/15 07:35:29;;;;;;;5.93;5.32;;;16.20;99.90;;;;;;5118623;27;20051;-79
2023/09/15 07:37:56;;;;;;;5.07;4.53;;;17.80;99.90;;;;;;5142758;27;20487;-79
2023/09/15 07:40:25;;;;;;;10.45;5.35;;;19.20;99.90;;;;;;5137895;27;20135;-79
2023/09/15 07:42:51;;;;;;;6.18;4.80;;;20.40;99.90;;;;;;5124155;27;20047;-80
2023/09/15 07:45:16;;;;;;;6.43;5.20;;;21.40;99.90;;;;;;5142278;27;20050;-80
2023/09/15 07:47:42;;;;;;;7.10;5.20;;;22.20;99.90;;;;;;5134255;27;20060;-80
2023/09/15 07:50:08;;;;;;;5.40;3.88;;;22.80;99.90;;;;;;5137644;27;20054;-80
2023/09/15 07:52:35;;;;;;;6.35;4.82;;;23.30;99.90;;;;;;5094556;27;20093;-79
2023/09/15 07:55:00;;;;;;;8.60;4.50;;;23.80;99.90;;;;;;5116389;27;20197;-81
2023/09/15 07:57:26;;;;;;;7.38;4.72;;;24.20;98.90;;;;;;5133931;27;20038;-80
2023/09/15 07:59:52;;;;;;;6.95;4.35;;;24.40;98.00;;;;;;5119948;27;20053;-80
2023/09/15 08:02:18;;;;;;;5.30;4.22;;;24.60;96.90;;;;;;5140920;27;20125;-80
2023/09/15 08:04:44;;;;;;;5.13;4.05;;;24.70;96.50;;;;;;5139158;27;20061;-80
2023/09/15 08:07:10;;;;;;;6.68;4.30;;;25.10;96.10;;;;;;5132866;27;20047;-80
2023/09/15 08:09:36;;;;;;;7.10;4.18;;;25.50;95.80;;;;;;5137729;27;20672;-80
2023/09/15 08:12:03;;;;;;;5.70;3.38;;;25.60;95.10;;;;;;5140382;27;20053;-81
2023/09/15 08:14:29;;;;;;;6.32;4.05;;;25.60;94.70;;;;;;5124213;27;20043;-80
2023/09/15 08:16:55;;;;;;;8.15;4.60;;;25.90;94.50;;;;;;5107642;27;20073;-80
2023/09/15 08:19:21;;;;;;;8.77;5.30;;;26.00;94.30;;;;;;5124573;27;20146;-80
2023/09/15 08:21:48;;;;;;;8.52;4.50;;;26.20;94.30;;;;;;5133942;27;20125;-80
2023/09/15 08:24:13;;;;;;;4.22;3.80;;;26.20;94.20;;;;;;5136690;27;20050;-80
2023/09/15 08:26:39;;;;;;;6.95;4.18;;;26.60;94.00;;;;;;5130986;27;20050;-81
2023/09/15 08:29:05;;;;;;;5.53;3.92;;;26.80;93.70;;;;;;5111080;27;20054;-81
2023/09/15 08:31:31;;;;;;;5.70;4.03;;;26.90;93.40;;;;;;5133524;27;20054;-81
2023/09/15 08:33:57;;;;;;;5.07;3.90;;;27.00;93.20;;;;;;5128468;27;20074;-81
2023/09/15 08:36:25;;;;;;;6.10;4.00;;;27.20;93.00;;;;;;5107510;27;20043;-80
2023/09/15 08:38:52;;;;;;;5.55;3.80;;;27.20;92.40;;;;;;5128417;27;20945;-80
2023/09/15 08:41:24;;;;;;;5.75;3.97;;;27.40;92.00;;;;;;5105304;27;20575;-80
2023/09/15 08:43:51;;;;;;;4.07;3.33;;;27.50;91.50;;;;;;5138851;27;20050;-80
2023/09/15 08:46:18;;;;;;;5.90;3.38;;;27.70;91.90;;;;;;5121964;27;20114;-80
2023/09/15 08:48:49;;;;;;;5.45;3.78;;;27.80;91.20;;;;;;5117959;27;20050;-81
2023/09/15 08:51:17;;;;;;;7.35;3.75;;;27.90;90.70;;;;;;5132405;27;20046;-81
2023/09/15 08:53:43;;;;;;;7.43;3.88;;;28.10;90.90;;;;;;5120911;27;20066;-80
2023/09/15 08:56:09;;;;;;;6.50;3.63;;;28.10;91.00;;;;;;5120954;27;20047;-80
2023/09/15 08:58:36;;;;;;;7.93;3.65;;;28.10;90.70;;;;;;5130908;27;20070;-81
2023/09/15 09:01:07;;;;;;;5.90;3.72;;;28.20;90.50;;;;;;5136595;27;20123;-81
2023/09/15 09:03:36;;;;;;;5.43;3.35;;;28.10;90.50;;;;;;5132785;27;20964;-81
2023/09/15 09:06:05;;;;;;;4.90;3.50;;;28.30;90.00;;;;;;5139089;27;20053;-81
2023/09/15 09:08:32;;;;;;;4.75;3.33;;;27.90;90.00;;;;;;5133855;27;20146;-81
2023/09/15 09:10:58;;;;;;;4.43;3.53;;;28.00;90.00;;;;;;5129469;27;20050;-81
2023/09/15 09:13:24;;;;;;;5.70;3.03;;;28.30;89.80;;;;;;5136182;27;20087;-81
2023/09/15 09:15:51;;;;;;;9.15;3.72;;;28.40;89.80;;;;;;5111553;27;20130;-82
2023/09/15 09:18:18;;;;;;;4.38;3.08;;;28.50;90.00;;;;;;5135063;27;20046;-81
2023/09/15 09:20:46;;;;;;;5.43;3.38;;;28.50;88.90;;;;;;5114677;27;20055;-81
2023/09/15 09:23:12;;;;;;;6.38;3.25;;;28.30;88.70;;;;;;5122016;27;20054;-81
2023/09/15 09:25:39;;;;;;;5.00;2.70;;;28.20;88.00;;;;;;5135103;27;20050;-80
2023/09/15 09:28:06;;;;;;;4.55;3.20;;;28.00;87.60;;;;;;5120896;27;20440;-81
2023/09/15 09:30:31;;;;;;;5.60;2.58;;;28.20;88.10;;;;;;5136731;27;20083;-80
2023/09/15 09:32:58;;;;;;;6.38;3.75;;;28.30;87.80;;;;;;5138828;27;20047;-81
2023/09/15 09:35:24;;;;;;;4.22;3.58;;;28.40;87.40;;;;;;5137800;27;20053;-81
2023/09/15 09:37:52;;;;;;;10.02;3.40;;;28.50;87.10;;;;;;5115987;27;20054;-82
2023/09/15 09:40:20;;;;;;;5.28;3.40;;;28.70;87.00;;;;;;5138893;27;20671;-82
2023/09/15 09:42:47;;;;;;;5.07;3.05;;;28.60;86.60;;;;;;5134248;27;20042;-82
2023/09/15 09:45:13;;;;;;;6.00;3.42;;;28.70;86.40;;;;;;5125082;27;20046;-82
2023/09/15 09:47:38;;;;;;;5.78;2.75;;;28.60;86.20;;;;;;5138573;27;20157;-81
2023/09/15 09:50:06;;;;;;;4.50;3.25;;;28.90;86.10;;;;;;5119317;27;20054;-82
2023/09/15 09:52:33;;;;;;;6.13;2.97;;;29.30;86.20;;;;;;5120659;27;20047;-82
2023/09/15 09:55:03;;;;;;;6.40;2.85;;;29.30;84.90;;;;;;5138339;27;20054;-81
2023/09/15 09:57:29;;;;;;;4.57;3.03;;;29.10;83.30;;;;;;5132702;27;20134;-81
2023/09/15 09:59:55;;;;;;;7.20;3.75;;;29.00;83.80;;;;;;5140323;27;20042;-81
2023/09/15 10:02:20;;;;;;;4.45;2.80;;;29.00;83.80;;;;;;5124151;27;20495;-81
2023/09/15 10:04:46;;;;;;;5.22;3.78;;;29.20;83.70;;;;;;5138808;27;20122;-82
2023/09/15 10:07:12;;;;;;;4.38;3.58;;;29.30;82.90;;;;;;5143199;27;20369;-81
2023/09/15 10:09:39;;;;;;;6.53;3.22;;;29.40;83.10;;;;;;5138050;27;20066;-82
2023/09/15 10:12:05;;;;;;;5.13;4.03;;;29.70;82.60;;;;;;5111521;27;20069;-81
2023/09/15 10:14:31;;;;;;;6.38;3.70;;;29.90;81.90;;;;;;5131759;27;20047;-82
2023/09/15 10:16:58;;;;;;;3.85;2.88;;;29.80;81.10;;;;;;5116248;27;20070;-80
2023/09/15 10:19:25;;;;;;;3.72;2.88;;;30.10;81.60;;;;;;5122741;27;20042;-82
2023/09/15 10:21:51;;;;;;;4.85;3.08;;;30.50;81.00;;;;;;5135860;27;20046;-81
2023/09/15 10:24:17;;;;;;;8.38;3.28;;;30.60;80.00;;;;;;5138247;27;20117;-81
2023/09/15 10:26:43;;;;;;;3.63;2.85;;;30.60;79.90;;;;;;5125636;27;20085;-81
2023/09/15 10:29:13;;;;;;;6.45;2.92;;;30.40;79.50;;;;;;5138488;27;20046;-81
2023/09/15 10:31:44;;;;;;;6.50;3.00;;;30.90;79.30;;;;;;5141888;27;20058;-81
2023/09/15 10:34:10;;;;;;;12.15;3.10;;;31.20;78.60;;;;;;5099841;27;20043;-80
2023/09/15 10:36:36;;;;;;;3.38;2.67;;;31.10;78.50;;;;;;5118387;27;20066;-81
2023/09/15 10:39:12;;;;;;;3.25;2.47;;;30.70;78.50;;;;;;5121012;27;20728;-81
2023/09/15 10:41:38;;;;;;;4.28;2.42;;;30.20;77.90;;;;;;5123012;27;20086;-81
2023/09/15 10:44:04;;;;;;;5.40;2.70;;;29.40;79.00;;;;;;5137607;27;20177;-80
2023/09/15 10:46:35;;;;;;;4.95;2.65;;;28.60;79.90;;;;;;5130958;27;20054;-81
2023/09/15 10:49:16;;;;;;;7.72;3.30;;;27.30;79.60;;;;;;5135570;27;20055;-81
2023/09/15 10:51:59;;;;;;;4.07;3.58;;;25.80;79.80;;;;;;5132246;27;20074;-81
2023/09/15 10:54:25;;;;;;;;;;;24.90;82.30;;;;;;5116482;27;20103;-81
2023/09/15 10:56:51;;;;;;;4.47;3.13;;;24.20;84.30;;;;;;5126424;27;19972;-84
2023/09/15 10:59:17;;;;;;;3.17;2.88;;;23.80;84.30;;;;;;5141679;27;20110;-81
2023/09/15 11:01:44;;;;;;;3.58;2.28;;;23.40;85.20;;;;;;5129052;27;20039;-80
2023/09/15 11:04:17;;;;;;;4.72;2.70;;;23.20;85.10;;;;;;5132487;27;20042;-81
2023/09/15 11:06:48;;;;;;;5.13;3.60;;;22.90;86.40;;;;;;5129822;27;20050;-81
2023/09/15 11:09:18;;;;;;;4.25;3.25;;;22.70;86.50;;;;;;5129640;27;20345;-81
2023/09/15 11:11:48;;;;;;;4.68;3.22;;;22.50;87.40;;;;;;5139831;27;20051;-81
2023/09/15 11:14:19;;;;;;;4.07;2.67;;;22.40;88.10;;;;;;5098210;27;20215;-82
2023/09/15 11:16:46;;;;;;;3.97;2.60;;;22.40;89.20;;;;;;5110615;27;20047;-83
2023/09/15 11:19:13;;;;;;;5.30;2.80;;;22.50;89.50;;;;;;5128171;27;20055;-81
2023/09/15 11:21:41;;;;;;;6.50;2.95;;;22.50;88.90;;;;;;5141739;27;20054;-81
2023/09/15 11:24:10;;;;;;;4.60;2.45;;;22.50;88.80;;;;;;5141305;27;20051;-81
2023/09/15 11:26:45;;;;;;;4.00;2.60;;;22.50;89.40;;;;;;5096622;27;20043;-81
2023/09/15 11:29:12;;;;;;;6.57;3.05;;;22.50;88.80;;;;;;5131780;27;20054;-81
2023/09/15 11:31:38;;;;;;;4.30;2.75;;;22.50;89.40;;;;;;5103280;27;20434;-81
2023/09/15 11:34:08;;;;;;;4.35;3.08;;;22.50;89.50;;;;;;5114254;27;20590;-81
2023/09/15 11:36:38;;;;;;;4.25;3.28;;;22.50;89.20;;;;;;5129042;27;20288;-81
2023/09/15 11:39:11;;;;;;;4.18;2.70;;;22.50;89.20;;;;;;5127451;27;20046;-81
2023/09/15 11:41:37;;;;;;;6.68;2.85;;;22.40;90.00;;;;;;5110893;27;20386;-81
2023/09/15 11:44:06;;;;;;;5.38;2.90;;;22.50;90.00;;;;;;5124264;27;20047;-81
2023/09/15 11:46:42;;;;;;;4.82;2.42;;;22.50;89.90;;;;;;5123222;27;20047;-81
2023/09/15 11:49:09;;;;;;;5.13;2.38;;;22.50;90.30;;;;;;5116425;27;20050;-80
2023/09/15 11:51:36;;;;;;;5.88;2.83;;;22.50;90.00;;;;;;5113215;27;20047;-81
2023/09/15 11:54:04;;;;;;;3.65;2.42;;;22.40;89.70;;;;;;5133951;27;20069;-82
2023/09/15 11:56:31;;;;;;;4.95;2.42;;;22.20;90.30;;;;;;5125260;27;20046;-81
2023/09/15 11:58:57;;;;;;;4.30;2.55;;;22.20;90.30;;;;;;5139951;27;20068;-81
2023/09/15 12:01:23;;;;;;;4.88;2.40;;;22.30;90.40;;;;;;5114409;27;20578;-82
2023/09/15 12:03:50;;;;;;;3.72;2.60;;;22.40;90.30;;;;;;5134122;27;20061;-81
2023/09/15 12:06:19;;;;;;;5.78;2.45;;;22.40;90.20;;;;;;5120652;27;20631;-81
2023/09/15 12:08:47;;;;;;;6.65;2.75;;;22.40;90.20;;;;;;5118833;27;20448;-82
2023/09/15 12:11:14;;;;;;;9.50;2.95;;;22.40;90.20;;;;;;5114928;27;20051;-82
2023/09/15 12:13:40;;;;;;;4.45;2.58;;;22.30;90.20;;;;;;5138078;27;20046;-82
2023/09/15 12:16:07;;;;;;;4.93;2.75;;;22.20;90.30;;;;;;5128389;27;20042;-82
2023/09/15 12:18:37;;;;;;;3.90;3.10;;;22.10;90.60;;;;;;5120954;27;20086;-82
2023/09/15 12:21:08;;;;;;;4.15;3.10;;;22.00;90.70;;;;;;5138125;27;20125;-81
2023/09/15 12:23:34;;;;;;;3.83;2.28;;;21.90;90.70;;;;;;5117850;27;20386;-81
2023/09/15 12:26:00;;;;;;;5.35;2.70;;;21.90;91.20;;;;;;5138623;27;20045;-82
2023/09/15 12:28:27;;;;;;;5.28;2.60;;;22.00;91.30;;;;;;5110297;27;20047;-82
2023/09/15 12:30:53;;;;;;;4.30;2.90;;;22.10;91.50;;;;;;5138024;27;20067;-82
2023/09/15 12:33:19;;;;;;;3.35;2.45;;;22.30;91.40;;;;;;5132706;27;20395;-82
2023/09/15 12:35:48;;;;;;;4.68;2.72;;;22.50;91.00;;;;;;5134311;27;20845;-82
2023/09/15 12:38:17;;;;;;;3.70;2.95;;;22.50;90.40;;;;;;5133805;27;20043;-81
2023/09/15 12:40:48;;;;;;;5.65;2.67;;;22.60;90.80;;;;;;5111857;27;20085;-82
2023/09/15 12:43:14;;;;;;;4.95;3.05;;;22.60;90.90;;;;;;5138518;27;20082;-81
2023/09/15 12:45:40;;;;;;;4.18;2.47;;;22.70;90.90;;;;;;5141038;27;20142;-80
2023/09/15 12:48:08;;;;;;;6.60;2.90;;;22.70;91.00;;;;;;5135550;27;20056;-80